createdAt,value
2022-10-04T00:01:44.352Z,77.56
2022-10-04T00:04:25.139Z,77.55
2022-10-04T00:07:14.159Z,77.57
2022-10-04T00:10:13.476Z,77.59
2022-10-04T00:12:50.553Z,77.59
2022-10-04T00:15:21.313Z,77.50
2022-10-04T00:18:21.270Z,77.58
2022-10-04T00:20:49.906Z,77.62
2022-10-04T00:23:28.783Z,77.66
2022-10-04T00:26:04.423Z,77.69
2022-10-04T00:28:36.484Z,77.60
2022-10-04T00:31:24.132Z,77.63
2022-10-04T00:34:16.367Z,77.69
2022-10-04T00:36:50.517Z,77.75
2022-10-04T00:39:26.053Z,77.80
2022-10-04T00:42:42.270Z,77.72
2022-10-04T00:45:24.530Z,77.64
2022-10-04T00:48:03.710Z,77.62
2022-10-04T00:50:39.331Z,77.56
2022-10-04T00:53:21.817Z,77.65
2022-10-04T00:55:56.442Z,77.68
2022-10-04T00:58:33.273Z,77.66
2022-10-04T01:01:00.696Z,77.67
2022-10-04T01:03:39.206Z,77.72
2022-10-04T01:06:08.559Z,77.74
2022-10-04T01:08:44.914Z,77.73
2022-10-04T01:11:18.117Z,77.79
2022-10-04T01:14:08.669Z,77.88
2022-10-04T01:16:36.997Z,77.98
2022-10-04T01:19:21.452Z,78.07
2022-10-04T01:22:08.916Z,78.10
2022-10-04T01:24:40.335Z,78.14
2022-10-04T01:27:50.621Z,78.30
2022-10-04T01:30:16.984Z,78.38
2022-10-04T01:32:45.222Z,78.45
2022-10-04T01:35:14.275Z,78.49
2022-10-04T01:37:40.755Z,78.56
2022-10-04T01:40:09.028Z,78.66
2022-10-04T01:42:49.278Z,78.70
2022-10-04T01:45:46.296Z,78.79
2022-10-04T01:48:17.655Z,78.80
2022-10-04T01:50:55.013Z,78.88
2022-10-04T01:53:30.145Z,78.91
2022-10-04T01:56:16.811Z,78.94
2022-10-04T01:58:49.201Z,79.00
2022-10-04T02:01:21.848Z,79.00
2022-10-04T02:04:00.137Z,79.00
2022-10-04T02:06:27.213Z,79.13
2022-10-04T02:08:56.803Z,79.25
2022-10-04T02:11:27.619Z,79.23
2022-10-04T02:13:54.779Z,79.20
2022-10-04T02:16:23.845Z,79.19
2022-10-04T02:18:50.987Z,79.20
2022-10-04T02:21:18.389Z,79.21
2022-10-04T02:23:46.601Z,79.30
2022-10-04T02:26:13.321Z,79.30
2022-10-04T02:28:39.574Z,79.28
2022-10-04T02:31:26.460Z,79.21
2022-10-04T02:33:57.454Z,79.20
2022-10-04T02:36:27.822Z,79.20
2022-10-04T02:39:06.142Z,79.20
2022-10-04T02:41:37.595Z,79.25
2022-10-04T02:44:17.404Z,79.28
2022-10-04T02:46:53.644Z,79.35
2022-10-04T02:49:29.619Z,79.40
2022-10-04T02:52:15.675Z,79.40
2022-10-04T02:55:06.763Z,79.44
2022-10-04T02:57:34.233Z,79.48
2022-10-04T03:00:12.155Z,79.50
2022-10-04T03:02:39.495Z,79.44
2022-10-04T03:05:12.797Z,79.54
2022-10-04T03:07:39.781Z,79.58
2022-10-04T03:10:12.060Z,79.47
2022-10-04T03:12:42.750Z,79.29
2022-10-04T03:15:12.337Z,79.13
2022-10-04T03:17:41.533Z,79.03
2022-10-04T03:20:14.014Z,78.98
2022-10-04T03:22:46.935Z,78.96
2022-10-04T03:25:23.266Z,79.15
2022-10-04T03:27:50.595Z,79.21
2022-10-04T03:30:20.609Z,79.22
2022-10-04T03:32:48.660Z,79.21
2022-10-04T03:35:29.923Z,79.14
2022-10-04T03:37:58.385Z,79.09
2022-10-04T03:40:31.100Z,78.97
2022-10-04T03:43:00.539Z,78.91
2022-10-04T03:45:28.505Z,78.90
2022-10-04T03:48:04.544Z,78.90
2022-10-04T03:50:36.404Z,78.93
2022-10-04T03:53:12.111Z,79.00
2022-10-04T03:55:45.264Z,78.97
2022-10-04T03:58:16.512Z,78.91
2022-10-04T04:00:59.780Z,78.99
2022-10-04T04:03:29.308Z,79.00
2022-10-04T04:05:59.618Z,78.96
2022-10-04T04:08:39.153Z,78.90
2022-10-04T04:11:10.656Z,78.90
2022-10-04T04:14:00.707Z,78.96
2022-10-04T04:16:27.765Z,79.08
2022-10-04T04:19:00.398Z,79.10
2022-10-04T04:21:27.648Z,79.10
2022-10-04T04:24:00.113Z,79.04
2022-10-04T04:26:43.389Z,79.00
2022-10-04T04:29:22.372Z,78.94
2022-10-04T04:32:33.369Z,79.00
2022-10-04T04:35:07.241Z,79.06
2022-10-04T04:37:37.784Z,79.16
2022-10-04T04:40:23.985Z,79.20
2022-10-04T04:42:51.591Z,79.34
2022-10-04T04:45:25.163Z,79.53
2022-10-04T04:47:56.732Z,79.68
2022-10-04T04:50:27.295Z,79.70
2022-10-04T04:53:07.101Z,79.62
2022-10-04T04:56:05.070Z,79.60
2022-10-04T04:58:46.945Z,79.61
2022-10-04T05:01:26.389Z,79.60
2022-10-04T05:04:04.409Z,79.60
2022-10-04T05:06:32.767Z,79.57
2022-10-04T05:08:58.927Z,79.58
2022-10-04T05:11:32.156Z,79.63
2022-10-04T05:14:08.997Z,79.70
2022-10-04T05:16:55.281Z,79.66
2022-10-04T05:19:26.943Z,79.61
2022-10-04T05:21:56.135Z,79.60
2022-10-04T05:24:29.846Z,79.67
2022-10-04T05:27:03.135Z,79.61
2022-10-04T05:29:37.697Z,79.52
2022-10-04T05:32:59.752Z,79.50
2022-10-04T05:35:28.151Z,79.40
2022-10-04T05:38:38.371Z,79.50
2022-10-04T05:41:15.620Z,79.56
2022-10-04T05:43:49.437Z,79.48
2022-10-04T05:46:24.546Z,79.32
2022-10-04T05:49:19.458Z,79.21
2022-10-04T05:52:01.283Z,78.82
2022-10-04T05:54:32.176Z,78.36
2022-10-04T05:57:31.080Z,78.26
2022-10-04T06:00:13.832Z,78.12
2022-10-04T06:03:15.271Z,78.09
2022-10-04T06:06:08.705Z,78.00
2022-10-04T06:08:46.522Z,77.90
2022-10-04T06:11:56.336Z,77.75
2022-10-04T06:14:41.033Z,77.65
2022-10-04T06:17:25.363Z,77.86
2022-10-04T06:20:06.017Z,77.65
2022-10-04T06:22:32.585Z,77.41
2022-10-04T06:25:05.826Z,77.21
2022-10-04T06:27:43.498Z,77.03
2022-10-04T06:30:18.633Z,76.62
2022-10-04T06:32:59.799Z,76.46
2022-10-04T06:35:59.939Z,76.32
2022-10-04T06:39:10.339Z,76.22
2022-10-04T06:42:06.691Z,76.10
2022-10-04T06:45:20.647Z,75.97
2022-10-04T06:48:08.350Z,75.50
2022-10-04T06:51:15.218Z,75.39
2022-10-04T06:54:08.054Z,75.23
2022-10-04T06:56:49.152Z,75.01
2022-10-04T06:59:51.998Z,74.73
2022-10-04T07:02:45.149Z,74.58
2022-10-04T07:05:33.142Z,74.28
2022-10-04T07:08:31.949Z,73.92
2022-10-04T07:11:13.193Z,73.63
2022-10-04T07:13:56.977Z,73.41
2022-10-04T07:16:46.504Z,73.11
2022-10-04T07:19:46.609Z,72.84
2022-10-04T07:22:35.395Z,72.70
2022-10-04T07:25:23.806Z,72.52
2022-10-04T07:28:26.928Z,72.21
2022-10-04T07:31:14.667Z,71.58
2022-10-04T07:33:54.188Z,71.92
2022-10-04T07:36:38.612Z,71.58
2022-10-04T07:39:14.818Z,71.15
2022-10-04T07:41:49.664Z,70.86
2022-10-04T07:44:40.746Z,70.40
2022-10-04T07:47:20.690Z,70.03
2022-10-04T07:49:50.299Z,69.33
2022-10-04T07:52:56.918Z,69.99
2022-10-04T07:55:43.790Z,69.56
2022-10-04T07:58:25.313Z,68.87
2022-10-04T08:01:06.329Z,68.55
2022-10-04T08:04:17.777Z,68.99
2022-10-04T08:06:59.278Z,68.43
2022-10-04T08:09:41.965Z,68.12
2022-10-04T08:12:19.969Z,67.58
2022-10-04T08:15:34.317Z,67.58
2022-10-04T08:18:55.010Z,67.37
2022-10-04T08:21:36.094Z,66.96
2022-10-04T08:24:35.400Z,66.81
2022-10-04T08:27:39.123Z,66.91
2022-10-04T08:30:16.514Z,66.42
2022-10-04T08:33:11.594Z,65.89
2022-10-04T08:35:45.581Z,65.34
2022-10-04T08:38:42.355Z,64.84
2022-10-04T08:41:49.046Z,63.89
2022-10-04T08:44:52.790Z,62.59
2022-10-04T08:48:23.989Z,61.34
2022-10-04T08:51:23.908Z,59.59
2022-10-04T08:54:27.213Z,58.45
2022-10-04T08:57:15.838Z,57.18
2022-10-04T08:59:57.143Z,56.09
2022-10-04T09:02:53.218Z,53.92
2022-10-04T09:05:51.078Z,52.88
2022-10-04T09:08:38.547Z,53.40
2022-10-04T09:11:29.827Z,52.77
2022-10-04T09:14:38.307Z,52.52
2022-10-04T09:17:28.191Z,51.87
2022-10-04T09:20:53.239Z,51.69
2022-10-04T09:23:31.475Z,51.25
2022-10-04T09:26:32.455Z,51.70
2022-10-04T09:29:16.187Z,51.46
2022-10-04T09:32:28.419Z,51.42
2022-10-04T09:35:13.321Z,51.13
2022-10-04T09:38:04.921Z,50.86
2022-10-04T09:41:08.821Z,50.97
2022-10-04T09:44:33.257Z,51.53
2022-10-04T09:47:31.260Z,51.40
2022-10-04T09:50:36.675Z,51.01
2022-10-04T09:53:21.307Z,50.80
2022-10-04T09:56:03.842Z,50.41
2022-10-04T09:58:58.404Z,49.97
2022-10-04T10:02:18.431Z,49.02
2022-10-04T10:05:22.215Z,48.89
2022-10-04T10:08:16.175Z,48.63
2022-10-04T10:11:34.443Z,48.54
2022-10-04T10:14:23.674Z,48.11
2022-10-04T10:17:18.717Z,47.79
2022-10-04T10:20:09.349Z,47.90
2022-10-04T10:23:19.942Z,48.40
2022-10-04T10:26:13.939Z,49.40
2022-10-04T10:29:02.408Z,49.08
2022-10-04T10:31:55.947Z,48.77
2022-10-04T10:35:22.511Z,49.31
2022-10-04T10:38:16.464Z,50.22
2022-10-04T10:41:40.493Z,49.84
2022-10-04T10:44:22.082Z,50.36
2022-10-04T10:47:44.199Z,50.64
2022-10-04T10:50:57.701Z,51.08
2022-10-04T10:54:06.940Z,51.29
2022-10-04T10:57:17.220Z,51.27
2022-10-04T11:00:11.283Z,50.80
2022-10-04T11:03:13.167Z,50.82
2022-10-04T11:05:59.373Z,50.78
2022-10-04T11:09:13.406Z,50.69
2022-10-04T11:12:18.043Z,50.27
2022-10-04T11:15:05.541Z,49.89
2022-10-04T11:18:11.774Z,50.98
2022-10-04T11:20:49.095Z,51.01
2022-10-04T11:23:51.297Z,50.99
2022-10-04T11:27:00.775Z,50.48
2022-10-04T11:30:25.758Z,50.09
2022-10-04T11:33:27.956Z,50.09
2022-10-04T11:36:29.494Z,50.29
2022-10-04T11:39:25.090Z,50.75
2022-10-04T11:42:43.449Z,50.77
2022-10-04T11:45:33.464Z,50.43
2022-10-04T11:48:45.398Z,50.31
2022-10-04T11:51:31.546Z,50.45
2022-10-04T11:54:31.142Z,50.06
2022-10-04T11:57:20.539Z,50.81
2022-10-04T12:00:23.882Z,50.21
2022-10-04T12:03:36.915Z,50.14
2022-10-04T12:06:57.807Z,50.57
2022-10-04T12:09:49.164Z,50.96
2022-10-04T12:12:36.231Z,51.55
2022-10-04T12:15:48.771Z,51.52
2022-10-04T12:18:43.289Z,51.20
2022-10-04T12:21:35.342Z,51.35
2022-10-04T12:24:32.642Z,51.67
2022-10-04T12:27:36.967Z,51.88
2022-10-04T12:30:30.345Z,51.60
2022-10-04T12:33:06.138Z,50.50
2022-10-04T12:36:20.089Z,50.65
2022-10-04T12:39:10.942Z,50.95
2022-10-04T12:42:22.607Z,50.44
2022-10-04T12:44:57.579Z,50.13
2022-10-04T12:48:16.713Z,50.18
2022-10-04T12:51:14.411Z,49.91
2022-10-04T12:53:53.624Z,49.66
2022-10-04T12:56:42.641Z,49.33
2022-10-04T12:59:52.155Z,49.27
2022-10-04T13:02:43.614Z,49.08
2022-10-04T13:05:49.607Z,49.61
2022-10-04T13:08:22.121Z,49.47
2022-10-04T13:11:10.344Z,49.37
2022-10-04T13:13:49.293Z,49.86
2022-10-04T13:17:34.592Z,50.18
2022-10-04T13:20:17.609Z,50.33
2022-10-04T13:23:02.566Z,50.29
2022-10-04T13:26:17.038Z,50.44
2022-10-04T13:28:46.242Z,50.29
2022-10-04T13:31:52.682Z,50.25
2022-10-04T13:34:36.024Z,50.28
2022-10-04T13:37:39.364Z,50.22
2022-10-04T13:40:31.914Z,50.12
2022-10-04T13:43:27.734Z,50.54
2022-10-04T13:46:19.281Z,50.34
2022-10-04T13:49:15.194Z,50.65
2022-10-04T13:52:33.859Z,50.20
2022-10-04T13:55:50.025Z,50.23
2022-10-04T13:58:27.880Z,49.94
2022-10-04T14:01:35.936Z,50.81
2022-10-04T14:04:51.999Z,50.18
2022-10-04T14:08:30.519Z,50.28
2022-10-04T14:11:11.316Z,50.07
2022-10-04T14:14:28.172Z,50.08
2022-10-04T14:17:52.388Z,50.06
2022-10-04T14:21:03.055Z,49.77
2022-10-04T14:24:15.872Z,50.09
2022-10-04T14:27:09.393Z,49.65
2022-10-04T14:29:54.355Z,49.46
2022-10-04T14:32:48.092Z,49.23
2022-10-04T14:35:52.629Z,49.11
2022-10-04T14:38:38.311Z,49.35
2022-10-04T14:41:19.251Z,49.04
2022-10-04T14:44:24.964Z,48.60
2022-10-04T14:47:18.313Z,48.73
2022-10-04T14:50:00.772Z,48.64
2022-10-04T14:52:49.555Z,48.75
2022-10-04T14:55:44.634Z,49.28
2022-10-04T14:58:33.934Z,49.21
2022-10-04T15:01:20.335Z,49.35
2022-10-04T15:04:13.029Z,49.51
2022-10-04T15:06:58.716Z,49.90
2022-10-04T15:09:47.857Z,49.86
2022-10-04T15:13:08.684Z,50.08
2022-10-04T15:15:56.050Z,50.77
2022-10-04T15:18:51.691Z,50.97
2022-10-04T15:21:41.028Z,51.04
2022-10-04T15:24:15.702Z,51.13
2022-10-04T15:27:22.767Z,51.29
2022-10-04T15:30:18.708Z,51.05
2022-10-04T15:33:08.560Z,51.33
2022-10-04T15:36:01.750Z,51.41
2022-10-04T15:38:42.991Z,51.37
2022-10-04T15:41:27.568Z,51.38
2022-10-04T15:44:12.770Z,51.59
2022-10-04T15:47:06.784Z,51.97
2022-10-04T15:50:11.752Z,52.02
2022-10-04T15:53:35.674Z,52.38
2022-10-04T15:56:32.798Z,52.13
2022-10-04T15:59:46.682Z,52.38
2022-10-04T16:03:02.946Z,52.57
2022-10-04T16:05:36.913Z,52.85
2022-10-04T16:08:05.711Z,53.01
2022-10-04T16:11:02.829Z,53.28
2022-10-04T16:14:09.120Z,53.54
2022-10-04T16:16:50.208Z,53.64
2022-10-04T16:19:31.157Z,53.73
2022-10-04T16:22:14.445Z,53.89
2022-10-04T16:24:56.966Z,54.18
2022-10-04T16:27:56.592Z,54.67
2022-10-04T16:30:37.388Z,54.81
2022-10-04T16:33:30.564Z,55.16
2022-10-04T16:36:09.400Z,55.65
2022-10-04T16:39:06.547Z,56.23
2022-10-04T16:41:44.459Z,57.06
2022-10-04T16:44:48.398Z,57.88
2022-10-04T16:47:30.227Z,58.49
2022-10-04T16:50:00.036Z,59.14
2022-10-04T16:52:50.959Z,59.64
2022-10-04T16:55:41.460Z,60.03
2022-10-04T16:58:25.521Z,60.49
2022-10-04T17:01:26.710Z,60.85
2022-10-04T17:04:19.950Z,61.26
2022-10-04T17:07:28.623Z,61.62
2022-10-04T17:10:04.116Z,62.00
2022-10-04T17:13:27.538Z,62.22
2022-10-04T17:16:14.081Z,62.35
2022-10-04T17:19:05.359Z,62.50
2022-10-04T17:21:45.750Z,62.79
2022-10-04T17:25:01.312Z,63.02
2022-10-04T17:27:50.014Z,63.10
2022-10-04T17:30:24.758Z,63.12
2022-10-04T17:33:42.014Z,63.24
2022-10-04T17:36:33.919Z,63.35
2022-10-04T17:39:47.897Z,63.45
2022-10-04T17:42:54.061Z,63.79
2022-10-04T17:45:35.202Z,64.04
2022-10-04T17:48:31.927Z,64.31
2022-10-04T17:51:40.950Z,64.61
2022-10-04T17:54:43.203Z,64.91
2022-10-04T17:57:25.610Z,65.21
2022-10-04T18:00:08.667Z,65.75
2022-10-04T18:02:52.243Z,65.80
2022-10-04T18:05:27.923Z,65.97
2022-10-04T18:08:07.700Z,66.15
2022-10-04T18:10:58.081Z,66.33
2022-10-04T18:13:47.191Z,66.53
2022-10-04T18:16:48.888Z,66.70
2022-10-04T18:19:49.698Z,66.83
2022-10-04T18:22:20.490Z,67.02
2022-10-04T18:25:02.081Z,67.17
2022-10-04T18:27:29.056Z,67.30
2022-10-04T18:30:01.092Z,67.48
2022-10-04T18:32:26.944Z,67.58
2022-10-04T18:34:59.509Z,67.73
2022-10-04T18:37:38.009Z,67.95
2022-10-04T18:40:20.675Z,68.08
2022-10-04T18:42:59.714Z,68.23
2022-10-04T18:45:28.127Z,68.35
2022-10-04T18:47:56.609Z,68.56
2022-10-04T18:50:37.655Z,68.75
2022-10-04T18:53:21.716Z,68.94
2022-10-04T18:56:00.484Z,69.15
2022-10-04T18:59:17.060Z,69.31
2022-10-04T19:02:05.780Z,69.53
2022-10-04T19:05:26.614Z,69.76
2022-10-04T19:08:28.316Z,69.83
2022-10-04T19:11:13.555Z,69.99
2022-10-04T19:14:15.937Z,70.16
2022-10-04T19:17:17.668Z,70.39
2022-10-04T19:20:09.871Z,70.55
2022-10-04T19:23:02.419Z,70.77
2022-10-04T19:25:40.472Z,70.98
2022-10-04T19:28:11.971Z,71.11
2022-10-04T19:30:59.880Z,71.26
2022-10-04T19:33:53.731Z,71.38
2022-10-04T19:36:57.664Z,71.57
2022-10-04T19:40:20.673Z,71.77
2022-10-04T19:43:10.492Z,72.02
2022-10-04T19:46:10.968Z,72.15
2022-10-04T19:49:27.985Z,72.36
2022-10-04T19:52:21.293Z,72.57
2022-10-04T19:54:53.070Z,72.72
2022-10-04T19:57:37.467Z,72.83
2022-10-04T20:00:12.041Z,72.94
2022-10-04T20:02:45.958Z,73.08
2022-10-04T20:05:23.855Z,73.15
2022-10-04T20:07:56.430Z,73.26
2022-10-04T20:10:32.863Z,73.39
2022-10-04T20:13:12.779Z,73.52
2022-10-04T20:15:39.447Z,73.60
2022-10-04T20:18:33.722Z,73.64
2022-10-04T20:21:00.426Z,73.69
2022-10-04T20:23:38.759Z,73.79
2022-10-04T20:26:10.221Z,73.85
2022-10-04T20:28:42.649Z,73.99
2022-10-04T20:31:32.394Z,74.04
2022-10-04T20:34:37.759Z,74.14
2022-10-04T20:37:08.235Z,74.19
2022-10-04T20:39:40.143Z,74.19
2022-10-04T20:42:38.099Z,74.26
2022-10-04T20:45:09.864Z,74.30
2022-10-04T20:47:48.813Z,74.30
2022-10-04T20:50:24.250Z,74.29
2022-10-04T20:53:05.361Z,74.30
2022-10-04T20:55:36.035Z,74.24
2022-10-04T20:58:24.846Z,74.24
2022-10-04T21:00:54.419Z,74.22
2022-10-04T21:03:21.926Z,74.21
2022-10-04T21:06:07.826Z,74.29
2022-10-04T21:08:35.066Z,74.35
2022-10-04T21:11:20.048Z,74.42
2022-10-04T21:13:52.604Z,74.53
2022-10-04T21:16:48.935Z,74.68
2022-10-04T21:19:47.788Z,74.85
2022-10-04T21:22:16.458Z,75.06
2022-10-04T21:24:45.414Z,75.19
2022-10-04T21:27:31.696Z,75.31
2022-10-04T21:29:59.795Z,75.45
2022-10-04T21:32:27.317Z,75.54
2022-10-04T21:34:54.643Z,75.64
2022-10-04T21:37:21.518Z,75.75
2022-10-04T21:39:47.572Z,75.86
2022-10-04T21:42:13.661Z,75.94
2022-10-04T21:44:39.760Z,76.07
2022-10-04T21:47:05.759Z,76.19
2022-10-04T21:49:31.814Z,76.30
2022-10-04T21:51:57.758Z,76.40
2022-10-04T21:54:24.185Z,76.48
2022-10-04T21:56:50.184Z,76.59
2022-10-04T21:59:16.146Z,76.71
2022-10-04T22:01:42.065Z,76.84
2022-10-04T22:04:07.985Z,76.93
2022-10-04T22:06:33.903Z,77.05
2022-10-04T22:08:59.817Z,77.16
2022-10-04T22:11:25.982Z,77.20
2022-10-04T22:13:51.934Z,77.27
2022-10-04T22:16:17.908Z,77.27
2022-10-04T22:18:43.877Z,77.29
2022-10-04T22:21:09.856Z,77.38
2022-10-04T22:23:40.924Z,77.42
2022-10-04T22:26:17.458Z,77.54
2022-10-04T22:28:55.299Z,77.63
2022-10-04T22:31:27.449Z,77.76
2022-10-04T22:33:54.880Z,77.94
2022-10-04T22:36:36.376Z,78.05
2022-10-04T22:39:13.936Z,78.17
2022-10-04T22:41:47.876Z,78.29
2022-10-04T22:44:24.591Z,78.38
2022-10-04T22:46:53.731Z,78.46
2022-10-04T22:49:24.157Z,78.55
2022-10-04T22:51:52.046Z,78.66
2022-10-04T22:54:24.352Z,78.73
2022-10-04T22:56:52.441Z,78.79
2022-10-04T22:59:20.633Z,78.88
2022-10-04T23:01:47.232Z,78.93
2022-10-04T23:04:18.305Z,78.99
2022-10-04T23:06:44.646Z,79.02
2022-10-04T23:09:10.962Z,79.10
2022-10-04T23:11:36.870Z,79.09
2022-10-04T23:14:02.841Z,79.17
2022-10-04T23:16:28.833Z,79.20
2022-10-04T23:19:05.392Z,79.20
2022-10-04T23:21:34.694Z,79.20
2022-10-04T23:24:14.863Z,79.20
2022-10-04T23:26:43.628Z,79.12
2022-10-04T23:29:21.659Z,79.10
2022-10-04T23:31:49.059Z,79.10
2022-10-04T23:34:36.365Z,79.11
2022-10-04T23:37:10.276Z,79.21
2022-10-04T23:39:36.977Z,79.21
2022-10-04T23:42:31.778Z,79.24
2022-10-04T23:44:59.828Z,79.20
2022-10-04T23:47:35.971Z,79.12
2022-10-04T23:50:18.155Z,79.09
2022-10-04T23:52:44.667Z,78.99
2022-10-04T23:55:27.350Z,78.90
2022-10-04T23:57:53.230Z,78.90
